createdAt,value
2023-05-18T00:00:10.278Z,101037.90
2023-05-18T00:03:17.490Z,101034.63
2023-05-18T00:06:04.124Z,101033.40
2023-05-18T00:08:50.150Z,101034.42
2023-05-18T00:11:41.727Z,101035.96
2023-05-18T00:14:30.070Z,101039.67
2023-05-18T00:17:17.454Z,101046.83
2023-05-18T00:20:08.589Z,101049.45
2023-05-18T00:22:55.942Z,101046.52
2023-05-18T00:26:03.174Z,101049.73
2023-05-18T00:28:48.971Z,101052.23
2023-05-18T00:31:39.260Z,101050.19
2023-05-18T00:34:27.149Z,101053.21
2023-05-18T00:37:12.730Z,101056.02
2023-05-18T00:39:58.070Z,101058.13
2023-05-18T00:42:43.843Z,101063.91
2023-05-18T00:45:32.122Z,101069.52
2023-05-18T00:48:20.998Z,101072.90
2023-05-18T00:51:12.882Z,101076.08
2023-05-18T00:54:04.671Z,101075.23
2023-05-18T00:56:54.192Z,101073.86
2023-05-18T00:59:40.990Z,101077.04
2023-05-18T01:02:29.808Z,101082.31
2023-05-18T01:05:17.685Z,101089.34
2023-05-18T01:08:03.568Z,101091.80
2023-05-18T01:11:19.170Z,101099.27
2023-05-18T01:14:39.137Z,101094.80
2023-05-18T01:17:50.439Z,101096.79
2023-05-18T01:21:12.258Z,101102.96
2023-05-18T01:24:08.079Z,101107.83
2023-05-18T01:26:59.600Z,101112.38
2023-05-18T01:29:48.660Z,101112.41
2023-05-18T01:32:44.581Z,101111.75
2023-05-18T01:35:34.690Z,101111.48
2023-05-18T01:38:26.063Z,101112.27
2023-05-18T01:41:25.943Z,101112.70
2023-05-18T01:44:21.434Z,101113.34
2023-05-18T01:47:17.142Z,101117.11
2023-05-18T01:50:11.595Z,101120.90
2023-05-18T01:53:13.147Z,101124.07
2023-05-18T01:56:01.841Z,101125.44
2023-05-18T01:58:53.871Z,101129.77
2023-05-18T02:01:39.375Z,101130.94
2023-05-18T02:04:27.182Z,101132.36
2023-05-18T02:07:12.973Z,101134.29
2023-05-18T02:09:58.556Z,101138.67
2023-05-18T02:12:43.871Z,101138.55
2023-05-18T02:15:29.789Z,101135.13
2023-05-18T02:18:16.270Z,101138.17
2023-05-18T02:21:09.831Z,101139.10
2023-05-18T02:23:56.335Z,101145.45
2023-05-18T02:26:44.431Z,101145.15
2023-05-18T02:29:34.007Z,101142.79
2023-05-18T02:32:38.805Z,101147.21
2023-05-18T02:35:24.779Z,101147.36
2023-05-18T02:38:10.669Z,101152.20
2023-05-18T02:40:56.141Z,101153.73
2023-05-18T02:43:41.875Z,101150.20
2023-05-18T02:46:27.451Z,101152.97
2023-05-18T02:49:13.349Z,101153.34
2023-05-18T02:51:59.140Z,101153.54
2023-05-18T02:54:45.443Z,101152.86
2023-05-18T02:57:34.295Z,101155.02
2023-05-18T03:00:20.500Z,101155.23
2023-05-18T03:03:08.715Z,101157.04
2023-05-18T03:05:55.957Z,101158.30
2023-05-18T03:08:44.346Z,101159.61
2023-05-18T03:11:29.728Z,101158.23
2023-05-18T03:14:17.865Z,101162.58
2023-05-18T03:17:05.708Z,101165.29
2023-05-18T03:19:53.721Z,101165.74
2023-05-18T03:22:38.971Z,101167.94
2023-05-18T03:25:28.392Z,101165.66
2023-05-18T03:28:15.400Z,101165.83
2023-05-18T03:31:01.010Z,101170.02
2023-05-18T03:34:25.469Z,101168.66
2023-05-18T03:37:11.644Z,101169.23
2023-05-18T03:40:13.106Z,101176.20
2023-05-18T03:42:59.398Z,101177.27
2023-05-18T03:45:45.093Z,101179.02
2023-05-18T03:48:30.494Z,101180.59
2023-05-18T03:51:16.163Z,101184.77
2023-05-18T03:54:01.710Z,101186.61
2023-05-18T03:56:48.008Z,101188.25
2023-05-18T03:59:33.544Z,101189.51
2023-05-18T04:02:19.312Z,101187.27
2023-05-18T04:05:08.246Z,101189.62
2023-05-18T04:07:58.558Z,101191.27
2023-05-18T04:10:44.407Z,101199.91
2023-05-18T04:13:30.048Z,101200.73
2023-05-18T04:16:15.935Z,101201.57
2023-05-18T04:19:05.010Z,101202.75
2023-05-18T04:21:56.218Z,101205.71
2023-05-18T04:24:42.008Z,101210.92
2023-05-18T04:27:29.288Z,101213.84
2023-05-18T04:30:14.659Z,101218.16
2023-05-18T04:33:00.465Z,101215.16
2023-05-18T04:35:47.012Z,101216.50
2023-05-18T04:38:34.741Z,101215.08
2023-05-18T04:41:22.709Z,101218.70
2023-05-18T04:44:09.664Z,101222.77
2023-05-18T04:46:57.133Z,101217.56
2023-05-18T04:49:43.110Z,101214.45
2023-05-18T04:52:30.288Z,101217.77
2023-05-18T04:55:27.118Z,101220.27
2023-05-18T04:58:12.762Z,101219.81
2023-05-18T05:00:57.970Z,101214.16
2023-05-18T05:03:44.692Z,101214.79
2023-05-18T05:06:31.819Z,101223.11
2023-05-18T05:09:18.534Z,101223.05
2023-05-18T05:12:03.990Z,101221.08
2023-05-18T05:14:49.696Z,101229.20
2023-05-18T05:17:35.326Z,101230.86
2023-05-18T05:20:22.706Z,101231.98
2023-05-18T05:23:08.094Z,101229.09
2023-05-18T05:25:53.409Z,101230.38
2023-05-18T05:28:38.430Z,101234.98
2023-05-18T05:31:24.156Z,101231.55
2023-05-18T05:34:13.338Z,101234.74
2023-05-18T05:36:59.130Z,101236.69
2023-05-18T05:39:45.794Z,101235.71
2023-05-18T05:42:32.291Z,101236.46
2023-05-18T05:45:18.141Z,101235.45
2023-05-18T05:48:04.118Z,101238.46
2023-05-18T05:50:50.575Z,101238.48
2023-05-18T05:53:36.360Z,101243.80
2023-05-18T05:56:22.977Z,101246.26
2023-05-18T05:59:08.854Z,101244.89
2023-05-18T06:01:54.747Z,101245.98
2023-05-18T06:04:40.938Z,101245.68
2023-05-18T06:07:26.426Z,101248.02
2023-05-18T06:10:11.612Z,101246.13
2023-05-18T06:12:57.144Z,101245.98
2023-05-18T06:15:42.868Z,101249.30
2023-05-18T06:18:28.523Z,101245.48
2023-05-18T06:21:17.322Z,101250.07
2023-05-18T06:24:05.023Z,101252.42
2023-05-18T06:26:50.812Z,101254.23
2023-05-18T06:29:38.388Z,101251.86
2023-05-18T06:32:24.273Z,101253.98
2023-05-18T06:35:11.410Z,101262.81
2023-05-18T06:37:56.858Z,101263.45
2023-05-18T06:40:42.999Z,101264.16
2023-05-18T06:43:28.758Z,101262.92
2023-05-18T06:46:22.953Z,101267.08
2023-05-18T06:49:09.335Z,101265.66
2023-05-18T06:51:54.700Z,101266.67
2023-05-18T06:54:42.786Z,101265.11
2023-05-18T06:57:30.369Z,101261.33
2023-05-18T07:00:21.793Z,101264.31
2023-05-18T07:03:08.449Z,101268.89
2023-05-18T07:05:54.630Z,101268.70
2023-05-18T07:08:40.682Z,101269.95
2023-05-18T07:11:28.882Z,101267.65
2023-05-18T07:14:16.149Z,101269.84
2023-05-18T07:17:01.828Z,101269.05
2023-05-18T07:19:47.205Z,101266.54
2023-05-18T07:22:36.367Z,101265.23
2023-05-18T07:25:23.823Z,101265.57
2023-05-18T07:28:09.725Z,101265.14
2023-05-18T07:30:55.294Z,101273.28
2023-05-18T07:33:47.321Z,101271.92
2023-05-18T07:36:36.126Z,101271.48
2023-05-18T07:39:29.181Z,101272.01
2023-05-18T07:42:15.173Z,101270.15
2023-05-18T07:45:00.747Z,101272.61
2023-05-18T07:47:46.336Z,101273.37
2023-05-18T07:50:32.075Z,101273.62
2023-05-18T07:53:21.414Z,101270.31
2023-05-18T07:56:14.657Z,101273.23
2023-05-18T07:59:00.186Z,101265.56
2023-05-18T08:01:45.803Z,101267.56
2023-05-18T08:04:32.732Z,101265.61
2023-05-18T08:07:18.425Z,101270.23
2023-05-18T08:43:29.411Z,101256.79
2023-05-18T08:46:23.418Z,101255.48
2023-05-18T08:49:14.726Z,101252.77
2023-05-18T09:26:13.774Z,101247.19
2023-05-18T09:49:11.990Z,101244.19
2023-05-18T09:55:17.238Z,101238.11
2023-05-18T09:58:06.371Z,101233.45
2023-05-18T10:00:53.556Z,101228.79
2023-05-18T10:03:41.279Z,101233.52
2023-05-18T10:06:31.412Z,101235.11
2023-05-18T10:12:23.059Z,101233.53
2023-05-18T10:15:15.514Z,101235.80
2023-05-18T10:21:22.219Z,101233.70
2023-05-18T10:24:15.764Z,101230.30
2023-05-18T10:27:09.103Z,101233.10
2023-05-18T11:50:37.134Z,101216.05
2023-05-18T11:56:33.134Z,101201.95
2023-05-18T11:59:40.731Z,101206.14
2023-05-18T12:02:33.233Z,101206.77
2023-05-18T12:12:05.022Z,101198.48
2023-05-18T12:15:00.904Z,101199.20
2023-05-18T12:17:47.645Z,101199.93
2023-05-18T12:20:37.110Z,101195.02
2023-05-18T12:23:37.746Z,101192.72
2023-05-18T12:26:25.565Z,101192.64
2023-05-18T12:29:11.918Z,101190.55
2023-05-18T12:31:57.738Z,101190.55
2023-05-18T12:34:43.933Z,101191.96
2023-05-18T12:37:37.987Z,101191.90
2023-05-18T12:40:48.089Z,101187.64
2023-05-18T12:43:35.810Z,101181.23
2023-05-18T12:46:24.437Z,101175.77
2023-05-18T12:49:10.288Z,101175.14
2023-05-18T12:51:55.860Z,101181.44
2023-05-18T12:55:10.210Z,101174.84
2023-05-18T12:58:19.495Z,101172.62
2023-05-18T13:01:12.127Z,101174.43
2023-05-18T13:04:18.170Z,101168.63
2023-05-18T13:07:03.955Z,101164.96
2023-05-18T13:09:49.457Z,101170.91
2023-05-18T13:12:44.026Z,101160.73
2023-05-18T13:15:38.779Z,101162.48
2023-05-18T13:18:27.230Z,101156.56
2023-05-18T13:21:12.451Z,101155.71
2023-05-18T13:23:58.053Z,101159.00
2023-05-18T13:26:43.209Z,101156.09
2023-05-18T13:29:28.462Z,101155.73
2023-05-18T13:32:14.091Z,101162.38
2023-05-18T13:34:59.394Z,101155.55
2023-05-18T13:37:48.703Z,101155.38
2023-05-18T13:40:34.273Z,101150.82
2023-05-18T13:43:19.621Z,101145.61
2023-05-18T13:46:08.713Z,101145.71
2023-05-18T13:48:53.803Z,101141.17
2023-05-18T13:51:38.936Z,101141.25
2023-05-18T13:54:24.155Z,101134.92
2023-05-18T13:57:09.700Z,101129.17
2023-05-18T13:59:58.588Z,101126.20
2023-05-18T14:02:48.171Z,101125.64
2023-05-18T14:05:33.787Z,101129.48
2023-05-18T14:08:19.080Z,101128.61
2023-05-18T14:11:04.435Z,101127.20
2023-05-18T14:13:49.857Z,101122.09
2023-05-18T14:16:36.931Z,101126.71
2023-05-18T14:19:22.458Z,101128.20
2023-05-18T14:22:08.096Z,101126.25
2023-05-18T14:24:53.461Z,101122.50
2023-05-18T14:27:38.822Z,101117.25
2023-05-18T14:30:24.279Z,101119.77
2023-05-18T14:33:10.592Z,101119.36
2023-05-18T15:28:10.996Z,101114.27
2023-05-18T15:37:27.057Z,101102.84
2023-05-18T15:40:12.953Z,101103.25
2023-05-18T15:42:59.537Z,101103.70
2023-05-18T15:45:45.279Z,101107.62
2023-05-18T15:48:31.389Z,101105.89
2023-05-18T15:51:17.073Z,101102.02
2023-05-18T15:54:03.074Z,101101.36
2023-05-18T15:56:49.792Z,101100.32
2023-05-18T15:59:37.619Z,101104.33
2023-05-18T16:08:47.485Z,101092.50
2023-05-18T16:11:36.304Z,101090.72
2023-05-18T16:14:22.064Z,101095.42
2023-05-18T16:17:08.531Z,101088.98
2023-05-18T16:19:54.328Z,101089.15
2023-05-18T16:22:39.708Z,101099.48
2023-05-18T16:25:28.614Z,101099.10
2023-05-18T16:28:17.220Z,101097.96
2023-05-18T16:31:07.516Z,101098.79
2023-05-18T16:36:26.657Z,101099.52
2023-05-18T16:39:12.747Z,101095.34
2023-05-18T16:41:58.186Z,101099.23
2023-05-18T16:44:43.354Z,101095.45
2023-05-18T16:47:32.983Z,101100.05
2023-05-18T16:50:20.097Z,101099.91
2023-05-18T16:53:05.703Z,101102.48
2023-05-18T16:58:36.243Z,101106.02
2023-05-18T17:01:28.637Z,101102.94
2023-05-18T17:04:16.668Z,101107.48
2023-05-18T17:07:02.620Z,101108.23
2023-05-18T17:09:49.011Z,101111.14
2023-05-18T17:12:37.039Z,101110.55
2023-05-18T17:15:22.827Z,101110.09
2023-05-18T17:18:00.290Z,101110.08
2023-05-18T17:20:46.874Z,101113.02
2023-05-18T17:23:32.347Z,101116.59
2023-05-18T17:26:18.289Z,101115.94
2023-05-18T17:29:05.002Z,101115.39
2023-05-18T17:31:52.830Z,101116.06
2023-05-18T17:34:41.534Z,101118.64
2023-05-18T17:37:28.595Z,101116.20
2023-05-18T17:40:14.234Z,101117.13
2023-05-18T17:43:00.226Z,101117.06
2023-05-18T17:45:45.923Z,101115.70
2023-05-18T17:48:31.516Z,101116.64
2023-05-18T18:04:24.563Z,101121.96
2023-05-18T18:07:12.452Z,101122.31
2023-05-18T18:09:57.862Z,101122.71
2023-05-18T18:12:46.309Z,101122.83
2023-05-18T18:15:31.684Z,101124.81
2023-05-18T18:18:17.376Z,101129.73
2023-05-18T18:21:08.585Z,101127.92
2023-05-18T18:27:10.585Z,101127.59
2023-05-18T18:29:59.010Z,101128.04
2023-05-18T18:35:48.474Z,101132.39
2023-05-18T18:38:36.031Z,101134.60
2023-05-18T18:44:37.221Z,101134.64
2023-05-18T18:47:23.330Z,101142.41
2023-05-18T18:50:09.097Z,101141.89
2023-05-18T18:52:54.773Z,101148.58
2023-05-18T18:55:40.774Z,101152.14
2023-05-18T18:58:26.908Z,101157.01
2023-05-18T19:01:12.385Z,101158.66
2023-05-18T19:03:58.377Z,101162.17
2023-05-18T19:06:43.719Z,101169.41
2023-05-18T19:09:35.854Z,101171.56
2023-05-18T19:12:21.335Z,101169.35
2023-05-18T19:15:14.905Z,101175.18
2023-05-18T19:18:01.063Z,101177.49
2023-05-18T19:20:46.912Z,101176.58
2023-05-18T19:23:33.825Z,101182.04
2023-05-18T19:26:19.624Z,101184.33
2023-05-18T19:29:05.109Z,101186.55
2023-05-18T19:31:57.326Z,101187.88
2023-05-18T19:34:43.468Z,101189.44
2023-05-18T19:37:28.786Z,101189.72
2023-05-18T19:40:15.481Z,101187.54
2023-05-18T19:43:01.155Z,101188.34
2023-05-18T19:45:54.374Z,101189.80
2023-05-18T19:48:39.600Z,101189.06
2023-05-18T19:51:25.545Z,101188.78
2023-05-18T19:54:11.744Z,101193.48
2023-05-18T19:56:57.365Z,101197.88
2023-05-18T19:59:44.312Z,101198.74
2023-05-18T20:02:32.621Z,101198.31
2023-05-18T20:05:18.781Z,101202.59
2023-05-18T20:08:08.737Z,101206.54
2023-05-18T20:10:55.958Z,101209.42
2023-05-18T20:13:46.529Z,101213.84
2023-05-18T20:16:34.621Z,101220.77
2023-05-18T20:19:22.917Z,101219.79
2023-05-18T20:22:17.488Z,101223.49
2023-05-18T20:25:04.954Z,101221.02
2023-05-18T20:28:12.207Z,101221.57
2023-05-18T20:30:59.070Z,101223.77
2023-05-18T20:33:49.666Z,101225.11
2023-05-18T20:36:35.564Z,101230.60
2023-05-18T20:39:21.088Z,101233.16
2023-05-18T20:42:18.954Z,101232.40
2023-05-18T20:45:13.446Z,101234.36
2023-05-18T20:48:00.095Z,101236.38
2023-05-18T20:50:46.777Z,101230.13
2023-05-18T20:53:32.416Z,101232.34
2023-05-18T20:56:23.877Z,101231.75
2023-05-18T20:59:13.612Z,101234.01
2023-05-18T21:02:00.736Z,101232.25
2023-05-18T21:04:46.910Z,101234.68
2023-05-18T21:07:41.650Z,101236.27
2023-05-18T21:10:27.456Z,101237.41
2023-05-18T21:13:13.073Z,101236.02
2023-05-18T21:15:59.551Z,101237.10
2023-05-18T21:18:45.091Z,101236.58
2023-05-18T21:21:33.756Z,101235.19
2023-05-18T21:24:20.114Z,101237.42
2023-05-18T21:27:06.045Z,101232.30
2023-05-18T21:29:51.942Z,101234.66
2023-05-18T21:32:38.487Z,101237.30
2023-05-18T21:35:24.478Z,101235.03
2023-05-18T21:38:12.083Z,101235.75
2023-05-18T21:40:58.359Z,101242.34
2023-05-18T21:43:44.629Z,101245.15
2023-05-18T21:46:31.910Z,101247.21
2023-05-18T21:49:18.791Z,101247.55
2023-05-18T21:52:07.166Z,101247.13
2023-05-18T21:54:53.028Z,101247.59
2023-05-18T21:57:38.631Z,101251.89
2023-05-18T22:00:30.014Z,101252.18
2023-05-18T22:03:16.014Z,101253.69
2023-05-18T22:06:01.912Z,101253.80
2023-05-18T22:08:47.822Z,101253.58
2023-05-18T22:11:33.693Z,101256.11
2023-05-18T22:14:21.417Z,101257.39
2023-05-18T22:17:07.136Z,101256.93
2023-05-18T22:19:54.480Z,101254.63
2023-05-18T22:22:41.556Z,101257.73
2023-05-18T22:25:28.249Z,101253.33
2023-05-18T22:28:15.463Z,101255.92
2023-05-18T22:31:01.187Z,101256.64
2023-05-18T22:33:46.624Z,101257.20
2023-05-18T22:36:32.712Z,101251.66
2023-05-18T22:39:19.230Z,101253.98
2023-05-18T22:42:04.829Z,101254.09
2023-05-18T22:44:50.681Z,101251.14
2023-05-18T22:47:39.964Z,101248.46
2023-05-18T22:50:27.062Z,101248.29
2023-05-18T22:53:13.331Z,101247.77
2023-05-18T22:55:58.718Z,101247.94
2023-05-18T22:58:44.031Z,101244.96
2023-05-18T23:01:29.195Z,101242.52
2023-05-18T23:04:20.326Z,101243.95
2023-05-18T23:07:05.382Z,101238.16
2023-05-18T23:09:51.721Z,101241.75
2023-05-18T23:12:37.806Z,101242.27
2023-05-18T23:15:24.461Z,101240.02
2023-05-18T23:18:09.859Z,101236.60
2023-05-18T23:20:58.396Z,101235.52
2023-05-18T23:23:47.497Z,101231.61
2023-05-18T23:26:36.007Z,101231.94
2023-05-18T23:29:21.617Z,101231.84
2023-05-18T23:32:07.765Z,101224.91
2023-05-18T23:34:53.319Z,101221.95
2023-05-18T23:37:41.976Z,101220.55
2023-05-18T23:40:27.674Z,101225.53
2023-05-18T23:43:13.299Z,101222.17
2023-05-18T23:46:05.185Z,101217.36
2023-05-18T23:48:54.274Z,101219.08
2023-05-18T23:51:42.152Z,101218.02
2023-05-18T23:54:27.982Z,101211.77
2023-05-18T23:57:13.294Z,101213.83
2023-05-18T23:59:58.894Z,101210.64
